Accueil
METAR-TAF:

METAR-TAF

Aéroports :

Aéroport international de Curaçao

Curaçao, Antilles néerlandaises

latitude: 12-12N, longitude: 068-58W, altitude: 9 m

Observation

Le bulletin a été fait il y a 17 minutes, à 14:00 UTC
Vent 15 kt de est/sud-est
Température 28°C
Humidité 70%
Pression 1014 hPa
Visibilité 10 km ou plus
Nuages fragmentés à une hauteur de 2100 ft

METAR: TNCC 161400Z AUTO 12015KT 9999 BKN021 28/22 Q1014 NOSIG

Heure: 10:17 (14:17 UTC)

Prévision

Le bulletin a été fait il y a 4 heures et 47 minutes, à 09:30 UTC
Prévision valable du 16 à 12 UTC au 17 à 12 UTC
Vent 12 kt de est
Visibilité 10 km ou plus
Quelques nuages à une hauteur de 2200 ft

TAF: TNCC 160930Z 1612/1712 10012KT 9999 FEW022

Observations et prévisions météorologiques de plus de 4000 aéroports (messages METAR et TAF).

Les stations disponibles sont représentées par des disques jaunes et rouges sur la carte.

Passer la souris dessus pour voir le nom de la station.

Cliquer dessus pour voir les observations et prévisions météorologiques.

Pour changer de carte: cliquez sur les boutons verts avec une croix noire pour zoomer, sur le bouton vert avec un tiret pour effectuer un zoom arrière, ou sur les flèches vertes pour les cartes adjacentes.


METAR-TAF: